createdAt,value
2018-02-06T00:01:12.488Z,25.80
2018-02-06T00:03:42.685Z,28.37
2018-02-06T00:06:12.116Z,24.67
2018-02-06T00:08:41.543Z,25.87
2018-02-06T00:11:10.964Z,25.77
2018-02-06T00:13:40.388Z,26.23
2018-02-06T00:16:10.564Z,29.47
2018-02-06T00:18:39.989Z,23.20
2018-02-06T00:21:09.392Z,23.60
2018-02-06T00:23:38.823Z,26.90
2018-02-06T00:26:08.236Z,28.03
2018-02-06T00:28:37.745Z,26.63
2018-02-06T00:31:07.139Z,23.87
2018-02-06T00:33:36.540Z,25.60
2018-02-06T00:36:06.003Z,25.13
2018-02-06T00:38:35.404Z,25.03
2018-02-06T00:41:04.832Z,27.37
2018-02-06T00:43:34.236Z,28.00
2018-02-06T00:46:03.674Z,22.40
2018-02-06T00:48:33.846Z,24.73
2018-02-06T00:51:04.030Z,23.30
2018-02-06T00:53:33.440Z,26.87
2018-02-06T00:56:02.872Z,21.00
2018-02-06T00:58:32.295Z,24.07
2018-02-06T01:01:01.715Z,25.30
2018-02-06T01:03:31.131Z,22.37
2018-02-06T01:06:00.575Z,22.67
2018-02-06T01:08:30.125Z,22.00
2018-02-06T01:10:59.520Z,21.80
2018-02-06T01:13:28.935Z,20.93
2018-02-06T01:15:58.350Z,20.73
2018-02-06T01:18:27.784Z,23.87
2018-02-06T01:20:57.200Z,23.57
2018-02-06T01:23:26.818Z,25.10
2018-02-06T01:25:56.209Z,24.27
2018-02-06T01:28:25.623Z,25.73
2018-02-06T01:30:55.027Z,20.77
2018-02-06T01:33:24.440Z,28.63
2018-02-06T01:35:54.628Z,22.83
2018-02-06T01:38:24.036Z,24.17
2018-02-06T01:40:53.460Z,22.40
2018-02-06T01:43:22.881Z,23.93
2018-02-06T01:45:52.296Z,23.80
2018-02-06T01:48:21.712Z,27.20
2018-02-06T01:50:51.158Z,21.33
2018-02-06T01:53:20.293Z,23.83
2018-02-06T01:55:49.700Z,23.37
2018-02-06T01:58:19.137Z,23.63
2018-02-06T02:00:48.550Z,21.03
2018-02-06T02:03:17.977Z,23.80
2018-02-06T02:05:47.396Z,24.23
2018-02-06T02:08:16.825Z,22.40
2018-02-06T02:10:45.939Z,25.57
2018-02-06T02:13:15.355Z,25.00
2018-02-06T02:15:44.795Z,22.10
2018-02-06T02:18:13.954Z,28.03
2018-02-06T02:20:43.490Z,25.30
2018-02-06T02:23:12.896Z,25.77
2018-02-06T02:25:42.331Z,27.63
2018-02-06T02:28:11.751Z,25.00
2018-02-06T02:30:41.944Z,24.87
2018-02-06T02:33:11.356Z,24.90
2018-02-06T02:35:40.822Z,27.47
2018-02-06T02:38:10.987Z,24.80
2018-02-06T02:40:40.422Z,21.27
2018-02-06T04:40:17.065Z,27.80
2018-02-06T04:42:46.496Z,24.60
2018-02-06T04:45:15.743Z,25.47
2018-02-06T04:47:45.169Z,27.10
2018-02-06T04:50:14.607Z,23.27
2018-02-06T04:52:44.015Z,29.77
2018-02-06T04:55:13.450Z,25.90
2018-02-06T04:57:42.867Z,29.63
2018-02-06T05:00:12.291Z,29.07
2018-02-06T05:02:41.763Z,30.53
2018-02-06T05:05:11.338Z,24.10
2018-02-06T05:07:40.751Z,26.57
2018-02-06T05:10:10.164Z,29.97
2018-02-06T05:12:39.635Z,27.13
2018-02-06T05:15:09.052Z,28.97
2018-02-06T05:17:38.480Z,24.67
2018-02-06T05:20:07.580Z,29.77
2018-02-06T05:22:37.004Z,25.27
2018-02-06T05:25:06.414Z,27.20
2018-02-06T05:27:35.837Z,26.60
2018-02-06T05:30:05.264Z,29.80
2018-02-06T05:32:34.676Z,29.47
2018-02-06T05:35:04.107Z,28.93
2018-02-06T05:37:33.528Z,31.77
2018-02-06T05:40:02.956Z,32.70
2018-02-06T05:42:32.091Z,31.47
2018-02-06T05:45:01.522Z,28.93
2018-02-06T05:47:31.264Z,29.30
2018-02-06T05:50:00.709Z,29.40
2018-02-06T05:52:29.857Z,31.73
2018-02-06T05:54:59.268Z,31.47
2018-02-06T05:57:28.738Z,30.23
2018-02-06T05:59:58.148Z,30.97
2018-02-06T06:02:27.572Z,31.40
2018-02-06T06:04:56.980Z,28.87
2018-02-06T06:07:26.623Z,35.10
2018-02-06T06:09:56.809Z,29.13
2018-02-06T06:12:26.239Z,33.03
2018-02-06T06:14:55.661Z,30.07
2018-02-06T06:17:25.080Z,30.47
2018-02-06T06:19:54.507Z,32.87
2018-02-06T06:22:23.924Z,30.13
2018-02-06T06:24:53.345Z,32.50
2018-02-06T06:27:22.751Z,31.77
2018-02-06T06:29:52.168Z,39.13
2018-02-06T06:32:21.570Z,33.67
2018-02-06T06:34:50.996Z,37.43
2018-02-06T06:37:20.421Z,32.33
2018-02-06T06:39:49.848Z,33.80
2018-02-06T06:42:20.026Z,29.73
2018-02-06T06:44:49.608Z,36.60
2018-02-06T06:47:19.779Z,35.63
2018-02-06T06:49:49.197Z,32.30
2018-02-06T06:52:18.622Z,30.27
2018-02-06T06:54:49.661Z,33.90
2018-02-06T06:57:19.067Z,37.93
2018-02-06T06:59:48.503Z,36.33
2018-02-06T07:02:17.908Z,37.17
2018-02-06T07:04:47.334Z,41.80
2018-02-06T07:07:16.750Z,33.33
2018-02-06T07:09:46.180Z,33.63
2018-02-06T07:12:15.640Z,32.30
2018-02-06T07:14:45.840Z,35.13
2018-02-06T07:17:15.265Z,39.87
2018-02-06T07:19:45.463Z,34.90
2018-02-06T07:22:14.903Z,35.53
2018-02-06T07:24:44.323Z,30.27
2018-02-06T07:27:13.776Z,37.47
2018-02-06T07:29:43.232Z,34.73
2018-02-06T07:32:12.650Z,35.10
2018-02-06T07:34:42.092Z,39.27
2018-02-06T07:37:11.494Z,33.83
2018-02-06T07:39:40.924Z,33.37
2018-02-06T07:42:11.107Z,39.37
2018-02-06T07:44:40.521Z,38.87
2018-02-06T07:47:09.952Z,34.50
2018-02-06T07:49:39.368Z,36.30
2018-02-06T07:52:08.810Z,33.07
2018-02-06T07:54:38.231Z,35.47
2018-02-06T07:57:08.416Z,33.70
2018-02-06T07:59:37.847Z,37.60
2018-02-06T08:02:07.261Z,33.83
2018-02-06T08:04:36.669Z,34.37
2018-02-06T08:07:05.817Z,35.10
2018-02-06T08:09:36.009Z,29.77
2018-02-06T08:12:05.433Z,29.90
2018-02-06T08:14:35.042Z,31.23
2018-02-06T08:17:04.556Z,30.30
2018-02-06T08:19:33.983Z,37.17
2018-02-06T08:22:03.133Z,30.80
2018-02-06T08:24:33.323Z,31.47
2018-02-06T08:27:02.739Z,34.60
2018-02-06T08:29:32.172Z,35.80
2018-02-06T08:32:01.594Z,30.53
2018-02-06T08:34:31.021Z,30.97
2018-02-06T08:37:01.217Z,33.80
2018-02-06T08:39:30.648Z,30.10
2018-02-06T08:42:00.564Z,30.03
2018-02-06T08:44:29.990Z,31.97
2018-02-06T08:46:59.408Z,30.20
2018-02-06T08:49:28.835Z,31.33
2018-02-06T08:51:58.255Z,28.43
2018-02-06T08:54:27.686Z,29.50
2018-02-06T08:56:57.960Z,29.77
2018-02-06T08:59:27.100Z,31.93
2018-02-06T09:01:56.507Z,30.10
2018-02-06T09:04:27.440Z,32.50
2018-02-06T09:06:56.875Z,23.53
2018-02-06T09:09:26.287Z,31.40
2018-02-06T09:11:55.726Z,28.17
2018-02-06T09:14:25.911Z,28.70
2018-02-06T09:16:55.325Z,25.90
2018-02-06T09:19:24.733Z,26.03
2018-02-06T09:21:54.161Z,30.37
2018-02-06T09:24:23.580Z,27.53
2018-02-06T09:26:52.998Z,27.97
2018-02-06T09:29:22.426Z,29.53
2018-02-06T09:31:51.851Z,26.20
2018-02-06T09:34:21.269Z,33.17
2018-02-06T09:36:51.476Z,27.67
2018-02-06T09:39:20.881Z,26.13
2018-02-06T09:41:50.303Z,29.80
2018-02-06T09:44:19.724Z,29.63
2018-02-06T09:46:49.144Z,29.20
2018-02-06T09:49:18.556Z,28.53
2018-02-06T09:51:47.993Z,30.57
2018-02-06T09:54:17.416Z,28.23
2018-02-06T09:56:47.618Z,26.20
2018-02-06T09:59:17.035Z,28.60
2018-02-06T10:01:46.455Z,28.00
2018-02-06T10:04:15.880Z,28.40
2018-02-06T10:06:45.300Z,27.27
2018-02-06T10:09:14.758Z,29.13
2018-02-06T10:11:44.180Z,23.33
2018-02-06T10:14:13.626Z,29.00
2018-02-06T10:16:43.036Z,27.23
2018-02-06T10:19:12.460Z,27.07
2018-02-06T10:21:41.863Z,26.90
2018-02-06T10:24:10.947Z,27.07
2018-02-06T10:26:40.356Z,26.70
2018-02-06T10:29:09.767Z,25.33
2018-02-06T10:31:39.175Z,28.43
2018-02-06T10:34:09.363Z,27.70
2018-02-06T10:36:38.791Z,25.20
2018-02-06T10:39:08.208Z,33.73
2018-02-06T10:41:37.631Z,30.53
2018-02-06T10:44:07.030Z,26.63
2018-02-06T10:46:36.437Z,27.40
2018-02-06T10:49:05.854Z,27.33
2018-02-06T10:51:35.259Z,23.60
2018-02-06T10:54:04.667Z,25.77
2018-02-06T10:56:34.093Z,27.73
2018-02-06T10:59:03.545Z,26.17
2018-02-06T11:01:33.137Z,26.50
2018-02-06T11:04:02.553Z,24.47
2018-02-06T11:06:31.975Z,26.30
2018-02-06T11:09:01.376Z,26.97
2018-02-06T11:11:30.496Z,25.97
2018-02-06T11:14:00.755Z,24.17
2018-02-06T11:16:30.975Z,24.20
2018-02-06T11:19:00.391Z,27.03
2018-02-06T11:21:29.808Z,23.90
2018-02-06T11:24:00.075Z,22.87
2018-02-06T11:26:29.504Z,25.73
2018-02-06T11:28:58.916Z,23.77
2018-02-06T11:31:28.051Z,24.47
2018-02-06T11:33:57.484Z,24.67
2018-02-06T11:36:26.894Z,23.93
2018-02-06T11:38:56.344Z,26.33
2018-02-06T11:41:26.520Z,21.80
2018-02-06T11:43:55.930Z,25.40
2018-02-06T11:46:25.337Z,22.63
2018-02-06T11:48:54.754Z,21.87
2018-02-06T11:51:24.357Z,24.37
2018-02-06T11:53:53.791Z,26.10
2018-02-06T11:56:23.220Z,28.43
2018-02-06T11:58:52.627Z,24.57
2018-02-06T12:01:22.049Z,25.43
2018-02-06T12:03:51.450Z,27.67
2018-02-06T12:06:20.865Z,24.40
2018-02-06T12:08:50.265Z,23.80
2018-02-06T12:11:19.689Z,30.97
2018-02-06T12:13:49.083Z,26.30
2018-02-06T12:16:18.521Z,27.43
2018-02-06T12:18:47.919Z,22.63
2018-02-06T12:21:17.343Z,27.30
2018-02-06T12:23:46.747Z,29.43
2018-02-06T12:26:15.911Z,30.97
2018-02-06T12:28:45.346Z,29.53
2018-02-06T12:31:15.545Z,30.30
2018-02-06T12:33:44.983Z,27.03
2018-02-06T12:36:14.405Z,26.63
2018-02-06T12:38:43.838Z,26.70
2018-02-06T12:41:14.012Z,29.13
2018-02-06T12:43:43.453Z,27.93
2018-02-06T12:46:12.705Z,23.03
2018-02-06T12:48:42.160Z,27.83
2018-02-06T12:51:11.590Z,25.37
2018-02-06T12:53:40.983Z,31.77
2018-02-06T12:56:10.394Z,24.57
2018-02-06T12:58:39.819Z,25.17
2018-02-06T13:01:09.634Z,21.03
2018-02-06T13:03:39.024Z,24.23
2018-02-06T13:06:08.419Z,22.10
2018-02-06T13:08:38.606Z,24.03
2018-02-06T13:11:08.040Z,23.03
2018-02-06T13:13:37.123Z,26.77
2018-02-06T13:16:06.532Z,23.40
2018-02-06T13:18:35.954Z,22.30
2018-02-06T13:21:05.357Z,28.43
2018-02-06T13:23:34.769Z,22.17
2018-02-06T13:26:04.203Z,27.90
2018-02-06T13:28:33.627Z,24.93
2018-02-06T13:31:03.066Z,21.47
2018-02-06T13:33:32.449Z,24.63
2018-02-06T13:36:01.923Z,25.13
2018-02-06T13:38:31.074Z,26.93
2018-02-06T13:41:00.529Z,21.60
2018-02-06T13:43:30.757Z,22.57
2018-02-06T13:46:00.164Z,21.53
2018-02-06T13:48:29.596Z,25.13
2018-02-06T13:50:59.762Z,24.77
2018-02-06T13:53:29.180Z,23.50
2018-02-06T13:55:58.407Z,22.93
2018-02-06T13:58:28.156Z,24.30
2018-02-06T14:00:57.578Z,21.73
2018-02-06T14:03:26.986Z,20.63
2018-02-06T14:05:56.417Z,22.90
2018-02-06T14:08:27.225Z,22.93
2018-02-06T14:10:56.659Z,22.07
2018-02-06T14:13:26.100Z,22.60
2018-02-06T14:15:56.296Z,23.97
2018-02-06T14:18:25.807Z,19.87
2018-02-06T14:20:55.216Z,23.07
2018-02-06T14:23:24.633Z,19.20
2018-02-06T14:25:54.078Z,21.27
2018-02-06T14:28:23.509Z,21.80
2018-02-06T14:30:52.912Z,23.50
2018-02-06T14:33:22.343Z,20.80
2018-02-06T14:35:52.541Z,18.47
2018-02-06T14:38:21.743Z,21.40
2018-02-06T14:40:51.171Z,22.50
2018-02-06T14:43:20.583Z,21.10
2018-02-06T14:45:50.018Z,25.57
2018-02-06T14:48:19.448Z,22.57
2018-02-06T14:50:49.624Z,21.57
2018-02-06T14:53:19.063Z,19.40
2018-02-06T14:55:48.484Z,19.83
2018-02-06T14:58:17.932Z,22.37
2018-02-06T15:00:48.111Z,19.87
2018-02-06T15:03:17.560Z,20.47
2018-02-06T15:05:46.975Z,20.97
2018-02-06T15:08:16.436Z,21.10
2018-02-06T15:10:45.868Z,22.53
2018-02-06T15:13:15.274Z,20.67
2018-02-06T15:15:44.713Z,25.00
2018-02-06T15:18:14.135Z,21.70
2018-02-06T15:20:43.570Z,21.03
2018-02-06T15:23:12.975Z,19.37
2018-02-06T15:25:42.422Z,19.43
2018-02-06T15:28:12.636Z,20.93
2018-02-06T15:30:42.631Z,23.07
2018-02-06T15:33:12.041Z,23.03
2018-02-06T15:35:41.463Z,21.27
2018-02-06T15:38:10.863Z,22.53
2018-02-06T15:40:40.270Z,18.57
2018-02-06T15:43:09.718Z,18.83
2018-02-06T15:45:39.325Z,20.33
2018-02-06T15:48:08.756Z,21.57
2018-02-06T15:50:38.173Z,21.63
2018-02-06T15:53:07.589Z,22.87
2018-02-06T15:55:36.844Z,19.00
2018-02-06T15:58:06.248Z,22.77
2018-02-06T16:00:38.831Z,20.97
2018-02-06T16:03:09.006Z,21.23
2018-02-06T16:05:38.425Z,22.63
2018-02-06T16:08:07.861Z,22.07
2018-02-06T16:10:37.260Z,21.57
2018-02-06T16:13:06.689Z,22.77
2018-02-06T16:15:36.144Z,21.10
2018-02-06T16:18:05.540Z,25.43
2018-02-06T16:20:34.960Z,20.83
2018-02-06T16:23:05.163Z,19.90
2018-02-06T16:25:34.421Z,21.10
2018-02-06T16:28:04.269Z,24.93
2018-02-06T16:30:33.696Z,24.17
2018-02-06T16:33:03.131Z,21.23
2018-02-06T16:35:32.569Z,20.83
2018-02-06T16:38:02.189Z,25.43
2018-02-06T16:40:31.623Z,28.23
2018-02-06T16:43:01.799Z,23.70
2018-02-06T16:45:31.219Z,22.17
2018-02-06T16:48:00.684Z,24.63
2018-02-06T16:50:30.095Z,22.33
2018-02-06T16:53:00.338Z,27.03
2018-02-06T16:55:30.525Z,32.97
2018-02-06T16:57:59.950Z,24.40
2018-02-06T17:00:29.375Z,39.23
2018-02-06T17:02:58.792Z,30.47
2018-02-06T17:05:27.895Z,23.00
2018-02-06T17:07:56.981Z,24.23
2018-02-06T17:10:26.417Z,23.77
2018-02-06T17:12:55.826Z,24.07
2018-02-06T17:15:25.265Z,24.90
2018-02-06T17:17:55.471Z,25.57
2018-02-06T17:20:24.916Z,24.93
2018-02-06T17:22:54.929Z,26.10
2018-02-06T17:25:24.355Z,24.83
2018-02-06T17:27:53.788Z,23.97
2018-02-06T17:30:23.976Z,29.10
2018-02-06T17:32:53.440Z,25.20
2018-02-06T17:35:23.633Z,24.50
2018-02-06T17:37:53.090Z,22.07
2018-02-06T17:40:23.288Z,24.13
2018-02-06T17:42:52.710Z,25.03
2018-02-06T17:45:22.137Z,25.10
2018-02-06T17:47:52.317Z,24.90
2018-02-06T17:50:21.766Z,23.90
2018-02-06T17:52:51.268Z,21.00
2018-02-06T17:55:20.701Z,25.87
2018-02-06T17:57:50.134Z,29.07
2018-02-06T18:00:19.545Z,23.30
2018-02-06T18:02:49.772Z,24.93
2018-02-06T18:05:19.203Z,26.87
2018-02-06T18:07:49.421Z,24.63
2018-02-06T18:10:18.651Z,23.93
2018-02-06T18:12:48.087Z,24.10
2018-02-06T18:15:17.531Z,25.60
2018-02-06T18:17:46.955Z,28.87
2018-02-06T18:20:16.891Z,26.17
2018-02-06T18:22:46.386Z,25.07
2018-02-06T18:25:15.806Z,26.20
2018-02-06T18:27:45.277Z,25.67
2018-02-06T18:30:15.618Z,22.80
2018-02-06T18:32:45.059Z,25.07
2018-02-06T18:35:14.508Z,25.37
2018-02-06T18:37:43.949Z,23.47
2018-02-06T18:40:13.123Z,22.53
2018-02-06T18:42:42.566Z,24.80
2018-02-06T18:45:12.782Z,23.20
2018-02-06T18:47:42.207Z,20.83
2018-02-06T18:50:11.340Z,19.17
2018-02-06T18:52:40.784Z,17.50
2018-02-06T18:55:10.195Z,21.93
2018-02-06T18:57:39.639Z,20.53
2018-02-06T19:00:08.706Z,22.27
2018-02-06T19:02:38.135Z,19.63
2018-02-06T19:05:07.575Z,17.00
2018-02-06T19:07:36.996Z,17.97
2018-02-06T19:10:06.408Z,22.43
2018-02-06T19:12:36.327Z,19.20
2018-02-06T19:15:06.664Z,20.13
2018-02-06T19:17:36.096Z,20.40
2018-02-06T19:20:05.044Z,18.80
2018-02-06T19:22:34.455Z,22.30
2018-02-06T19:25:04.106Z,20.93
2018-02-06T19:27:33.512Z,20.13
2018-02-06T19:30:02.952Z,20.73
2018-02-06T19:32:32.428Z,23.20
2018-02-06T19:35:02.096Z,20.80
2018-02-06T19:37:31.502Z,21.67
2018-02-06T19:40:00.924Z,20.07
2018-02-06T19:42:30.353Z,18.23
2018-02-06T19:44:59.547Z,20.63
2018-02-06T19:47:29.905Z,19.10
2018-02-06T19:49:59.322Z,17.40
2018-02-06T19:52:28.768Z,17.93
2018-02-06T19:54:58.184Z,19.33
2018-02-06T19:57:28.906Z,20.13
2018-02-06T19:59:58.304Z,20.83
2018-02-06T20:02:29.633Z,19.27
2018-02-06T20:04:59.187Z,18.13
2018-02-06T20:07:29.519Z,18.17
2018-02-06T20:09:58.923Z,19.60
2018-02-06T20:12:28.964Z,17.97
2018-02-06T20:15:00.341Z,18.10
2018-02-06T20:17:29.924Z,19.00
2018-02-06T20:19:59.334Z,20.67
2018-02-06T20:22:28.815Z,19.50
2018-02-06T20:24:59.102Z,17.87
2018-02-06T20:27:28.718Z,18.93
2018-02-06T20:29:59.425Z,19.17
2018-02-06T20:32:28.892Z,16.50
2018-02-06T20:34:58.346Z,18.00
2018-02-06T20:37:27.754Z,22.13
2018-02-06T20:39:57.758Z,15.93
2018-02-06T20:42:27.208Z,16.60
2018-02-06T20:44:57.729Z,17.17
2018-02-06T20:47:27.149Z,17.23
2018-02-06T20:49:56.371Z,27.50
2018-02-06T20:52:25.780Z,16.70
2018-02-06T20:54:55.200Z,17.23
2018-02-06T20:57:24.621Z,15.53
2018-02-06T20:59:54.092Z,16.80
2018-02-06T21:02:23.499Z,13.33
2018-02-06T21:04:53.029Z,16.30
2018-02-06T21:07:22.489Z,16.93
2018-02-06T21:09:51.968Z,17.57
2018-02-06T21:12:21.676Z,16.17
2018-02-06T21:14:52.033Z,17.83
2018-02-06T21:17:21.517Z,16.13
2018-02-06T21:19:50.949Z,17.60
2018-02-06T21:22:20.456Z,11.67
2018-02-06T21:24:49.881Z,20.23
2018-02-06T21:27:19.320Z,17.30
2018-02-06T21:29:48.769Z,18.00
2018-02-06T21:32:18.216Z,16.67
2018-02-06T21:34:48.394Z,17.00
2018-02-06T21:37:17.812Z,12.23
2018-02-06T21:39:47.232Z,13.70
2018-02-06T21:42:16.722Z,19.73
2018-02-06T21:44:46.161Z,17.47
2018-02-06T21:47:15.623Z,17.60
2018-02-06T21:49:45.798Z,18.20
2018-02-06T21:52:15.264Z,14.20
2018-02-06T21:54:44.691Z,17.60
2018-02-06T21:57:14.932Z,13.97
2018-02-06T21:59:45.135Z,16.20
2018-02-06T22:02:14.541Z,14.73
2018-02-06T22:04:43.987Z,17.50
2018-02-06T22:07:14.221Z,13.90
2018-02-06T22:09:44.458Z,17.93
2018-02-06T22:12:14.655Z,17.93
2018-02-06T22:14:44.093Z,15.07
2018-02-06T22:17:13.514Z,15.47
2018-02-06T22:19:44.020Z,17.93
2018-02-06T22:22:13.426Z,14.97
2018-02-06T22:24:42.840Z,19.10
2018-02-06T22:27:12.288Z,17.20
2018-02-06T22:29:41.707Z,16.40
2018-02-06T22:32:11.121Z,13.73
2018-02-06T22:34:40.540Z,14.70
2018-02-06T22:37:10.384Z,17.57
2018-02-06T22:39:39.522Z,14.23
2018-02-06T22:42:08.930Z,19.73
2018-02-06T22:44:38.350Z,16.17
2018-02-06T22:47:07.772Z,18.13
2018-02-06T22:49:37.200Z,16.93
2018-02-06T22:52:06.629Z,14.20
2018-02-06T22:54:36.063Z,14.37
2018-02-06T22:57:05.486Z,13.80
2018-02-06T22:59:34.890Z,16.90
2018-02-06T23:02:04.497Z,12.93
2018-02-06T23:04:33.636Z,15.73
2018-02-06T23:07:03.072Z,15.57
2018-02-06T23:09:32.483Z,13.63
2018-02-06T23:12:01.645Z,16.57
2018-02-06T23:14:31.039Z,16.20
2018-02-06T23:17:00.483Z,13.57
2018-02-06T23:19:29.637Z,17.33
2018-02-06T23:22:00.560Z,19.17
2018-02-06T23:24:29.989Z,16.50
2018-02-06T23:26:59.387Z,19.23
2018-02-06T23:29:28.812Z,12.23
2018-02-06T23:31:58.226Z,11.10
2018-02-06T23:34:27.651Z,10.97
2018-02-06T23:36:57.173Z,16.43
2018-02-06T23:39:27.538Z,16.17
2018-02-06T23:41:56.956Z,16.70
2018-02-06T23:44:26.393Z,17.53
2018-02-06T23:46:56.586Z,15.57
2018-02-06T23:49:26.053Z,18.20
2018-02-06T23:51:56.247Z,19.10
2018-02-06T23:54:25.660Z,17.40
2018-02-06T23:56:54.800Z,15.83
2018-02-06T23:59:24.308Z,18.20
